sensor_id;sensor_type;location;lat;lon;timestamp;pressure;altitude;pressure_sealevel;temperature;humidity
65384;BME280;51986;52.788;41.368;2023-02-21T00:00:00;96981.66;;;-0.27;57.65
65384;BME280;51986;52.788;41.368;2023-02-21T00:02:37;97008.28;;;-0.23;58.14
65384;BME280;51986;52.788;41.368;2023-02-21T00:05:04;97000.47;;;-0.08;57.85
65384;BME280;51986;52.788;41.368;2023-02-21T00:07:32;96993.13;;;-0.20;58.29
65384;BME280;51986;52.788;41.368;2023-02-21T00:09:59;97008.97;;;-0.11;57.94
65384;BME280;51986;52.788;41.368;2023-02-21T00:12:26;96991.63;;;-0.18;57.97
65384;BME280;51986;52.788;41.368;2023-02-21T00:14:53;96990.19;;;-0.30;58.08
65384;BME280;51986;52.788;41.368;2023-02-21T00:17:20;96994.63;;;-0.34;58.61
65384;BME280;51986;52.788;41.368;2023-02-21T00:19:47;96992.84;;;-0.58;58.29
65384;BME280;51986;52.788;41.368;2023-02-21T00:22:14;96994.72;;;-0.77;59.59
65384;BME280;51986;52.788;41.368;2023-02-21T00:24:41;96963.25;;;-0.64;59.49
65384;BME280;51986;52.788;41.368;2023-02-21T00:27:08;96979.91;;;-0.62;58.55
65384;BME280;51986;52.788;41.368;2023-02-21T00:29:35;96988.75;;;-0.52;58.28
65384;BME280;51986;52.788;41.368;2023-02-21T00:32:02;96974.34;;;-0.53;58.39
65384;BME280;51986;52.788;41.368;2023-02-21T00:34:29;96998.34;;;-0.45;58.39
65384;BME280;51986;52.788;41.368;2023-02-21T00:36:56;96979.13;;;-0.52;58.93
65384;BME280;51986;52.788;41.368;2023-02-21T00:39:23;96979.50;;;-0.46;58.15
65384;BME280;51986;52.788;41.368;2023-02-21T00:41:50;96979.53;;;-0.60;58.70
65384;BME280;51986;52.788;41.368;2023-02-21T00:44:17;96963.28;;;-0.68;58.41
65384;BME280;51986;52.788;41.368;2023-02-21T00:46:44;96963.66;;;-0.80;58.44
65384;BME280;51986;52.788;41.368;2023-02-21T00:49:11;96980.69;;;-0.97;58.11
65384;BME280;51986;52.788;41.368;2023-02-21T00:51:37;96951.09;;;-1.03;57.73
65384;BME280;51986;52.788;41.368;2023-02-21T00:54:04;96961.81;;;-1.12;58.21
65384;BME280;51986;52.788;41.368;2023-02-21T00:56:31;96944.47;;;-1.33;58.47
65384;BME280;51986;52.788;41.368;2023-02-21T00:58:58;96951.50;;;-1.26;58.76
65384;BME280;51986;52.788;41.368;2023-02-21T01:01:25;96962.94;;;-1.23;58.62
65384;BME280;51986;52.788;41.368;2023-02-21T01:03:52;96949.63;;;-1.43;59.19
65384;BME280;51986;52.788;41.368;2023-02-21T01:06:19;96952.59;;;-1.41;58.70
65384;BME280;51986;52.788;41.368;2023-02-21T01:08:46;96971.78;;;-1.53;58.61
65384;BME280;51986;52.788;41.368;2023-02-21T01:11:17;96934.84;;;-1.64;59.02
65384;BME280;51986;52.788;41.368;2023-02-21T01:13:44;96955.53;;;-1.64;59.39
65384;BME280;51986;52.788;41.368;2023-02-21T01:16:11;96933.28;;;-2.05;59.94
65384;BME280;51986;52.788;41.368;2023-02-21T01:18:39;96934.72;;;-2.14;60.04
65384;BME280;51986;52.788;41.368;2023-02-21T01:21:11;96963.19;;;-2.07;60.80
65384;BME280;51986;52.788;41.368;2023-02-21T01:23:39;96927.00;;;-2.04;60.52
65384;BME280;51986;52.788;41.368;2023-02-21T01:26:08;96943.59;;;-2.05;59.75
65384;BME280;51986;52.788;41.368;2023-02-21T01:28:35;96962.44;;;-2.04;60.10
65384;BME280;51986;52.788;41.368;2023-02-21T01:31:02;96952.41;;;-2.23;60.30
65384;BME280;51986;52.788;41.368;2023-02-21T01:33:37;96927.34;;;-2.19;60.23
65384;BME280;51986;52.788;41.368;2023-02-21T01:36:05;96922.13;;;-2.34;60.35
65384;BME280;51986;52.788;41.368;2023-02-21T01:38:35;96930.19;;;-2.42;60.59
65384;BME280;51986;52.788;41.368;2023-02-21T01:41:02;96929.09;;;-2.45;60.37
65384;BME280;51986;52.788;41.368;2023-02-21T01:43:29;96932.06;;;-2.39;60.85
65384;BME280;51986;52.788;41.368;2023-02-21T01:45:56;96951.56;;;-2.49;60.66
65384;BME280;51986;52.788;41.368;2023-02-21T01:48:25;96948.25;;;-2.46;60.58
65384;BME280;51986;52.788;41.368;2023-02-21T01:50:54;96925.69;;;-2.56;61.42
65384;BME280;51986;52.788;41.368;2023-02-21T01:53:24;96918.38;;;-2.47;60.82
65384;BME280;51986;52.788;41.368;2023-02-21T01:55:54;96925.38;;;-2.47;61.10
65384;BME280;51986;52.788;41.368;2023-02-21T01:58:23;96952.72;;;-2.36;59.97
65384;BME280;51986;52.788;41.368;2023-02-21T02:00:51;96909.53;;;-2.49;60.03
65384;BME280;51986;52.788;41.368;2023-02-21T02:03:19;96919.88;;;-2.42;59.43
65384;BME280;51986;52.788;41.368;2023-02-21T02:06:06;96920.97;;;-2.43;60.63
65384;BME280;51986;52.788;41.368;2023-02-21T02:08:34;96904.03;;;-2.41;59.68
65384;BME280;51986;52.788;41.368;2023-02-21T02:17:02;96923.91;;;-2.45;59.22
65384;BME280;51986;52.788;41.368;2023-02-21T02:29:03;96915.78;;;-2.50;60.27
65384;BME280;51986;52.788;41.368;2023-02-21T02:37:15;96909.91;;;-2.44;60.32
65384;BME280;51986;52.788;41.368;2023-02-21T02:40:31;96913.28;;;-2.22;59.59
65384;BME280;51986;52.788;41.368;2023-02-21T02:43:20;96927.69;;;-2.17;60.00
65384;BME280;51986;52.788;41.368;2023-02-21T02:46:08;96891.88;;;-2.30;59.62
65384;BME280;51986;52.788;41.368;2023-02-21T02:48:42;96905.19;;;-2.20;59.61
65384;BME280;51986;52.788;41.368;2023-02-21T02:51:13;96888.19;;;-2.29;59.17
65384;BME280;51986;52.788;41.368;2023-02-21T02:53:42;96908.09;;;-2.33;58.85
65384;BME280;51986;52.788;41.368;2023-02-21T02:56:12;96898.88;;;-2.34;58.78
65384;BME280;51986;52.788;41.368;2023-02-21T02:58:54;96881.16;;;-2.39;59.14
65384;BME280;51986;52.788;41.368;2023-02-21T03:09:53;96878.81;;;-2.65;58.59
65384;BME280;51986;52.788;41.368;2023-02-21T03:13:17;96907.53;;;-2.77;59.03
65384;BME280;51986;52.788;41.368;2023-02-21T03:15:24;96876.13;;;-2.90;59.44
65384;BME280;51986;52.788;41.368;2023-02-21T03:18:02;96869.53;;;-2.88;59.70
65384;BME280;51986;52.788;41.368;2023-02-21T03:20:32;96859.81;;;-3.12;59.88
65384;BME280;51986;52.788;41.368;2023-02-21T03:23:01;96875.66;;;-3.10;60.19
65384;BME280;51986;52.788;41.368;2023-02-21T03:25:29;96858.25;;;-3.24;60.11
65384;BME280;51986;52.788;41.368;2023-02-21T03:28:00;96862.69;;;-3.24;60.07
65384;BME280;51986;52.788;41.368;2023-02-21T03:30:35;96869.31;;;-3.23;60.84
65384;BME280;51986;52.788;41.368;2023-02-21T03:33:02;96857.25;;;-3.09;59.88
65384;BME280;51986;52.788;41.368;2023-02-21T03:35:30;96860.78;;;-3.35;60.93
65384;BME280;51986;52.788;41.368;2023-02-21T03:37:58;96845.78;;;-3.15;60.74
65384;BME280;51986;52.788;41.368;2023-02-21T03:40:29;96838.38;;;-3.23;61.20
65384;BME280;51986;52.788;41.368;2023-02-21T03:43:00;96839.09;;;-3.26;61.53
65384;BME280;51986;52.788;41.368;2023-02-21T03:45:35;96845.69;;;-3.33;61.51
65384;BME280;51986;52.788;41.368;2023-02-21T03:48:12;96826.41;;;-3.53;61.42
65384;BME280;51986;52.788;41.368;2023-02-21T03:50:50;96815.75;;;-3.48;61.39
65384;BME280;51986;52.788;41.368;2023-02-21T03:53:18;96825.75;;;-3.39;61.49
65384;BME280;51986;52.788;41.368;2023-02-21T03:55:45;96824.69;;;-3.35;61.51
65384;BME280;51986;52.788;41.368;2023-02-21T03:58:19;96817.66;;;-3.38;62.59
65384;BME280;51986;52.788;41.368;2023-02-21T04:00:47;96816.25;;;-3.32;61.84
65384;BME280;51986;52.788;41.368;2023-02-21T04:03:16;96815.47;;;-3.39;62.01
65384;BME280;51986;52.788;41.368;2023-02-21T04:05:50;96844.97;;;-3.29;61.69
65384;BME280;51986;52.788;41.368;2023-02-21T04:08:17;96823.66;;;-3.26;61.36
65384;BME280;51986;52.788;41.368;2023-02-21T04:10:44;96812.56;;;-3.31;60.65
65384;BME280;51986;52.788;41.368;2023-02-21T04:13:20;96806.69;;;-3.31;61.44
65384;BME280;51986;52.788;41.368;2023-02-21T04:15:48;96806.63;;;-3.38;61.39
65384;BME280;51986;52.788;41.368;2023-02-21T04:18:16;96824.69;;;-3.35;61.38
65384;BME280;51986;52.788;41.368;2023-02-21T04:20:45;96814.69;;;-3.43;61.63
65384;BME280;51986;52.788;41.368;2023-02-21T04:23:18;96801.44;;;-3.42;61.32
65384;BME280;51986;52.788;41.368;2023-02-21T04:25:46;96803.69;;;-3.37;62.08
65384;BME280;51986;52.788;41.368;2023-02-21T04:28:19;96793.84;;;-3.13;60.81
65384;BME280;51986;52.788;41.368;2023-02-21T04:30:47;96766.94;;;-3.26;60.76
65384;BME280;51986;52.788;41.368;2023-02-21T04:33:15;96776.56;;;-3.09;60.15
65384;BME280;51986;52.788;41.368;2023-02-21T04:35:42;96780.63;;;-3.12;60.20
65384;BME280;51986;52.788;41.368;2023-02-21T04:38:20;96785.09;;;-2.94;59.96
65384;BME280;51986;52.788;41.368;2023-02-21T04:40:47;96773.00;;;-2.83;60.29
65384;BME280;51986;52.788;41.368;2023-02-21T04:43:14;96761.53;;;-2.93;59.73
65384;BME280;51986;52.788;41.368;2023-02-21T04:45:41;96779.63;;;-2.82;59.39
65384;BME280;51986;52.788;41.368;2023-02-21T04:48:08;96768.56;;;-2.83;59.70
65384;BME280;51986;52.788;41.368;2023-02-21T04:50:35;96782.59;;;-2.73;58.64
65384;BME280;51986;52.788;41.368;2023-02-21T04:53:02;96762.72;;;-2.69;58.77
65384;BME280;51986;52.788;41.368;2023-02-21T04:55:29;96775.63;;;-2.51;58.56
65384;BME280;51986;52.788;41.368;2023-02-21T04:57:56;96767.91;;;-2.47;58.76
65384;BME280;51986;52.788;41.368;2023-02-21T05:00:23;96775.31;;;-2.24;57.94
65384;BME280;51986;52.788;41.368;2023-02-21T05:02:50;96760.56;;;-2.20;57.45
65384;BME280;51986;52.788;41.368;2023-02-21T05:05:17;96759.84;;;-2.21;57.52
65384;BME280;51986;52.788;41.368;2023-02-21T05:07:44;96759.84;;;-2.07;57.33
65384;BME280;51986;52.788;41.368;2023-02-21T05:10:13;96763.16;;;-1.85;57.27
65384;BME280;51986;52.788;41.368;2023-02-21T05:12:40;96762.03;;;-1.66;56.67
65384;BME280;51986;52.788;41.368;2023-02-21T05:15:07;96747.28;;;-1.72;55.80
65384;BME280;51986;52.788;41.368;2023-02-21T05:17:34;96764.97;;;-1.53;55.27
65384;BME280;51986;52.788;41.368;2023-02-21T05:20:02;96759.38;;;-1.37;55.24
65384;BME280;51986;52.788;41.368;2023-02-21T05:22:29;96746.78;;;-1.28;55.18
65384;BME280;51986;52.788;41.368;2023-02-21T05:24:57;96774.50;;;-1.32;54.91
65384;BME280;51986;52.788;41.368;2023-02-21T05:27:24;96744.94;;;-1.28;54.41
65384;BME280;51986;52.788;41.368;2023-02-21T05:29:52;96748.97;;;-1.16;54.86
65384;BME280;51986;52.788;41.368;2023-02-21T05:32:20;96748.53;;;-0.96;54.36
65384;BME280;51986;52.788;41.368;2023-02-21T05:34:48;96732.66;;;-1.02;53.92
65384;BME280;51986;52.788;41.368;2023-02-21T05:37:16;96763.22;;;-0.76;53.37
65384;BME280;51986;52.788;41.368;2023-02-21T05:39:43;96741.03;;;-0.73;53.25
65384;BME280;51986;52.788;41.368;2023-02-21T05:42:10;96714.38;;;-0.74;53.30
65384;BME280;51986;52.788;41.368;2023-02-21T05:44:37;96730.59;;;-0.62;52.76
65384;BME280;51986;52.788;41.368;2023-02-21T05:47:05;96716.47;;;-0.51;52.81
65384;BME280;51986;52.788;41.368;2023-02-21T05:49:32;96728.66;;;-0.44;52.33
65384;BME280;51986;52.788;41.368;2023-02-21T05:51:59;96728.25;;;-0.39;52.73
65384;BME280;51986;52.788;41.368;2023-02-21T05:54:26;96718.84;;;-0.22;52.42
65384;BME280;51986;52.788;41.368;2023-02-21T05:56:55;96685.66;;;-0.34;52.07
65384;BME280;51986;52.788;41.368;2023-02-21T05:59:22;96718.81;;;-0.15;51.85
65384;BME280;51986;52.788;41.368;2023-02-21T06:01:49;96711.81;;;-0.22;52.15
65384;BME280;51986;52.788;41.368;2023-02-21T06:04:17;96699.22;;;0.22;51.91
65384;BME280;51986;52.788;41.368;2023-02-21T06:06:44;96692.44;;;0.32;51.16
65384;BME280;51986;52.788;41.368;2023-02-21T06:09:11;96651.75;;;0.28;50.91
65384;BME280;51986;52.788;41.368;2023-02-21T06:11:38;96657.56;;;0.40;50.83
65384;BME280;51986;52.788;41.368;2023-02-21T06:14:14;96666.53;;;0.66;50.99
65384;BME280;51986;52.788;41.368;2023-02-21T06:16:42;96676.78;;;0.76;50.98
65384;BME280;51986;52.788;41.368;2023-02-21T06:19:09;96691.69;;;0.69;50.03
65384;BME280;51986;52.788;41.368;2023-02-21T06:21:37;96687.22;;;0.69;49.89
65384;BME280;51986;52.788;41.368;2023-02-21T06:24:05;96691.19;;;0.81;49.67
65384;BME280;51986;52.788;41.368;2023-02-21T06:26:32;96680.22;;;0.97;49.32
65384;BME280;51986;52.788;41.368;2023-02-21T06:29:00;96666.09;;;0.98;49.09
65384;BME280;51986;52.788;41.368;2023-02-21T06:31:27;96665.88;;;1.16;49.09
65384;BME280;51986;52.788;41.368;2023-02-21T06:33:54;96678.56;;;1.10;48.72
65384;BME280;51986;52.788;41.368;2023-02-21T06:36:24;96672.50;;;1.20;48.68
65384;BME280;51986;52.788;41.368;2023-02-21T06:38:52;96656.91;;;1.20;48.60
65384;BME280;51986;52.788;41.368;2023-02-21T06:41:23;96685.81;;;1.49;48.43
65384;BME280;51986;52.788;41.368;2023-02-21T06:43:54;96661.41;;;1.67;48.04
65384;BME280;51986;52.788;41.368;2023-02-21T06:46:26;96649.75;;;1.75;47.28
65384;BME280;51986;52.788;41.368;2023-02-21T06:48:54;96639.97;;;2.06;46.84
65384;BME280;51986;52.788;41.368;2023-02-21T06:51:21;96633.28;;;2.05;46.63
65384;BME280;51986;52.788;41.368;2023-02-21T06:53:49;96644.56;;;2.18;46.87
65384;BME280;51986;52.788;41.368;2023-02-21T06:56:16;96656.78;;;2.21;46.00
65384;BME280;51986;52.788;41.368;2023-02-21T06:58:43;96652.44;;;2.34;46.52
65384;BME280;51986;52.788;41.368;2023-02-21T07:01:10;96632.66;;;2.57;45.50
65384;BME280;51986;52.788;41.368;2023-02-21T07:03:40;96629.44;;;2.53;45.41
65384;BME280;51986;52.788;41.368;2023-02-21T07:06:07;96612.41;;;2.48;46.02
65384;BME280;51986;52.788;41.368;2023-02-21T07:08:34;96617.47;;;2.55;44.85
65384;BME280;51986;52.788;41.368;2023-02-21T07:11:01;96628.91;;;2.78;45.55
65384;BME280;51986;52.788;41.368;2023-02-21T07:13:28;96623.53;;;2.85;44.87
65384;BME280;51986;52.788;41.368;2023-02-21T07:15:55;96591.31;;;2.79;45.00
65384;BME280;51986;52.788;41.368;2023-02-21T07:18:22;96599.41;;;3.17;44.35
65384;BME280;51986;52.788;41.368;2023-02-21T07:20:49;96597.84;;;3.36;43.85
65384;BME280;51986;52.788;41.368;2023-02-21T07:23:16;96593.84;;;3.48;43.58
65384;BME280;51986;52.788;41.368;2023-02-21T07:25:43;96600.53;;;3.49;44.03
65384;BME280;51986;52.788;41.368;2023-02-21T07:28:10;96591.22;;;3.64;43.47
65384;BME280;51986;52.788;41.368;2023-02-21T07:30:37;96594.13;;;3.82;43.03
65384;BME280;51986;52.788;41.368;2023-02-21T07:33:04;96597.19;;;3.94;42.24
65384;BME280;51986;52.788;41.368;2023-02-21T07:35:31;96594.56;;;3.64;42.79
65384;BME280;51986;52.788;41.368;2023-02-21T07:37:58;96579.06;;;4.03;42.67
65384;BME280;51986;52.788;41.368;2023-02-21T07:40:25;96595.94;;;3.98;42.94
65384;BME280;51986;52.788;41.368;2023-02-21T07:42:52;96601.94;;;3.82;43.00
65384;BME280;51986;52.788;41.368;2023-02-21T07:45:19;96579.69;;;4.07;42.21
65384;BME280;51986;52.788;41.368;2023-02-21T07:47:46;96591.09;;;4.13;42.04
65384;BME280;51986;52.788;41.368;2023-02-21T07:50:14;96580.06;;;3.93;41.86
65384;BME280;51986;52.788;41.368;2023-02-21T07:52:41;96582.25;;;4.23;41.65
65384;BME280;51986;52.788;41.368;2023-02-21T07:55:08;96596.97;;;3.88;42.64
65384;BME280;51986;52.788;41.368;2023-02-21T07:57:35;96576.59;;;4.12;42.57
65384;BME280;51986;52.788;41.368;2023-02-21T08:00:02;96555.13;;;4.21;41.43
65384;BME280;51986;52.788;41.368;2023-02-21T08:02:38;96548.66;;;4.25;41.78
65384;BME280;51986;52.788;41.368;2023-02-21T08:05:09;96568.13;;;4.75;40.77
65384;BME280;51986;52.788;41.368;2023-02-21T08:07:38;96556.41;;;4.92;40.97
65384;BME280;51986;52.788;41.368;2023-02-21T08:10:05;96578.69;;;4.59;40.55
65384;BME280;51986;52.788;41.368;2023-02-21T08:12:32;96571.56;;;3.76;42.73
65384;BME280;51986;52.788;41.368;2023-02-21T08:14:59;96571.66;;;4.81;41.25
65384;BME280;51986;52.788;41.368;2023-02-21T08:17:26;96561.00;;;4.63;41.39
65384;BME280;51986;52.788;41.368;2023-02-21T08:19:53;96553.72;;;4.83;41.32
65384;BME280;51986;52.788;41.368;2023-02-21T08:22:20;96565.63;;;4.84;40.65
65384;BME280;51986;52.788;41.368;2023-02-21T08:24:49;96552.22;;;4.82;41.19
65384;BME280;51986;52.788;41.368;2023-02-21T08:27:16;96540.66;;;4.71;41.25
65384;BME280;51986;52.788;41.368;2023-02-21T08:29:49;96534.91;;;4.88;40.51
65384;BME280;51986;52.788;41.368;2023-02-21T08:32:18;96540.69;;;4.29;40.99
65384;BME280;51986;52.788;41.368;2023-02-21T08:34:46;96529.75;;;4.34;41.18
65384;BME280;51986;52.788;41.368;2023-02-21T08:37:14;96549.53;;;3.48;42.91
65384;BME280;51986;52.788;41.368;2023-02-21T08:39:51;96541.38;;;3.62;42.96
65384;BME280;51986;52.788;41.368;2023-02-21T08:42:19;96519.13;;;3.28;43.13
65384;BME280;51986;52.788;41.368;2023-02-21T08:44:48;96549.13;;;4.07;42.10
65384;BME280;51986;52.788;41.368;2023-02-21T08:47:17;96509.56;;;4.09;41.71
65384;BME280;51986;52.788;41.368;2023-02-21T08:49:47;96528.59;;;4.22;41.67
65384;BME280;51986;52.788;41.368;2023-02-21T08:52:18;96539.00;;;3.97;41.86
65384;BME280;51986;52.788;41.368;2023-02-21T08:54:46;96547.78;;;4.15;41.62
65384;BME280;51986;52.788;41.368;2023-02-21T08:57:13;96531.69;;;3.92;41.25
65384;BME280;51986;52.788;41.368;2023-02-21T08:59:42;96534.72;;;4.03;41.62
65384;BME280;51986;52.788;41.368;2023-02-21T09:02:17;96513.28;;;3.82;42.35
65384;BME280;51986;52.788;41.368;2023-02-21T09:04:45;96508.75;;;4.12;42.01
65384;BME280;51986;52.788;41.368;2023-02-21T09:07:14;96494.56;;;3.71;42.75
65384;BME280;51986;52.788;41.368;2023-02-21T09:09:41;96542.75;;;3.67;42.72
65384;BME280;51986;52.788;41.368;2023-02-21T09:12:08;96519.84;;;4.16;41.77
65384;BME280;51986;52.788;41.368;2023-02-21T09:14:41;96512.34;;;4.44;40.95
65384;BME280;51986;52.788;41.368;2023-02-21T09:17:11;96517.00;;;5.00;40.50
65384;BME280;51986;52.788;41.368;2023-02-21T09:19:39;96497.25;;;5.11;39.72
65384;BME280;51986;52.788;41.368;2023-02-21T09:22:09;96508.00;;;5.13;40.20
65384;BME280;51986;52.788;41.368;2023-02-21T09:24:37;96494.50;;;5.15;39.95
65384;BME280;51986;52.788;41.368;2023-02-21T09:27:04;96509.31;;;4.83;40.13
65384;BME280;51986;52.788;41.368;2023-02-21T09:29:33;96483.88;;;4.97;40.01
65384;BME280;51986;52.788;41.368;2023-02-21T09:32:12;96495.19;;;5.28;39.08
65384;BME280;51986;52.788;41.368;2023-02-21T09:34:39;96486.22;;;5.51;38.30
65384;BME280;51986;52.788;41.368;2023-02-21T09:37:07;96474.91;;;5.32;39.27
65384;BME280;51986;52.788;41.368;2023-02-21T09:39:36;96488.41;;;5.31;38.89
65384;BME280;51986;52.788;41.368;2023-02-21T09:42:04;96489.31;;;5.37;38.88
65384;BME280;51986;52.788;41.368;2023-02-21T09:44:31;96482.22;;;5.25;39.22
65384;BME280;51986;52.788;41.368;2023-02-21T09:47:03;96479.06;;;5.08;39.23
65384;BME280;51986;52.788;41.368;2023-02-21T09:49:41;96469.44;;;5.05;40.17
65384;BME280;51986;52.788;41.368;2023-02-21T09:52:34;96472.28;;;4.98;40.23
65384;BME280;51986;52.788;41.368;2023-02-21T09:55:19;96472.38;;;5.07;39.86
65384;BME280;51986;52.788;41.368;2023-02-21T09:57:47;96453.28;;;4.97;39.85
65384;BME280;51986;52.788;41.368;2023-02-21T10:00:17;96453.00;;;5.17;39.97
65384;BME280;51986;52.788;41.368;2023-02-21T10:02:56;96470.63;;;4.91;40.48
65384;BME280;51986;52.788;41.368;2023-02-21T10:08:38;96459.53;;;5.00;40.36
65384;BME280;51986;52.788;41.368;2023-02-21T10:11:02;96459.44;;;4.90;40.11
65384;BME280;51986;52.788;41.368;2023-02-21T10:13:48;96454.47;;;4.83;40.68
65384;BME280;51986;52.788;41.368;2023-02-21T10:19:41;96454.28;;;4.14;42.21
65384;BME280;51986;52.788;41.368;2023-02-21T10:22:35;96445.41;;;4.11;42.06
65384;BME280;51986;52.788;41.368;2023-02-21T10:25:17;96454.19;;;4.43;42.06
65384;BME280;51986;52.788;41.368;2023-02-21T10:27:45;96456.59;;;4.12;42.37
65384;BME280;51986;52.788;41.368;2023-02-21T10:30:23;96467.31;;;4.14;42.30
65384;BME280;51986;52.788;41.368;2023-02-21T10:32:52;96461.13;;;4.84;41.31
65384;BME280;51986;52.788;41.368;2023-02-21T10:35:18;96450.16;;;4.89;40.75
65384;BME280;51986;52.788;41.368;2023-02-21T10:37:49;96481.22;;;4.36;41.85
65384;BME280;51986;52.788;41.368;2023-02-21T10:40:37;96464.19;;;4.70;41.15
65384;BME280;51986;52.788;41.368;2023-02-21T10:43:43;96445.69;;;3.75;43.21
65384;BME280;51986;52.788;41.368;2023-02-21T10:48:52;96446.47;;;4.39;41.72
65384;BME280;51986;52.788;41.368;2023-02-21T10:51:33;96451.03;;;4.10;42.77
65384;BME280;51986;52.788;41.368;2023-02-21T10:54:21;96445.41;;;4.24;42.85
65384;BME280;51986;52.788;41.368;2023-02-21T10:56:49;96456.25;;;3.97;42.71
65384;BME280;51986;52.788;41.368;2023-02-21T10:59:38;96454.84;;;3.67;43.83
65384;BME280;51986;52.788;41.368;2023-02-21T11:02:31;96455.47;;;3.71;43.64
65384;BME280;51986;52.788;41.368;2023-02-21T11:07:38;96436.94;;;2.82;45.30
65384;BME280;51986;52.788;41.368;2023-02-21T11:10:30;96454.09;;;2.79;45.93
65384;BME280;51986;52.788;41.368;2023-02-21T11:13:03;96446.94;;;2.83;45.65
65384;BME280;51986;52.788;41.368;2023-02-21T11:15:30;96423.75;;;2.56;46.17
65384;BME280;51986;52.788;41.368;2023-02-21T11:18:05;96441.75;;;3.42;44.56
65384;BME280;51986;52.788;41.368;2023-02-21T11:20:32;96451.75;;;3.14;45.10
65384;BME280;51986;52.788;41.368;2023-02-21T11:22:59;96465.25;;;3.25;44.70
65384;BME280;51986;52.788;41.368;2023-02-21T11:25:31;96447.16;;;3.05;45.39
65384;BME280;51986;52.788;41.368;2023-02-21T11:30:31;96452.44;;;2.85;45.16
65384;BME280;51986;52.788;41.368;2023-02-21T11:33:01;96457.50;;;2.76;46.14
65384;BME280;51986;52.788;41.368;2023-02-21T11:35:32;96456.69;;;2.96;45.38
65384;BME280;51986;52.788;41.368;2023-02-21T11:38:03;96458.44;;;3.15;44.96
65384;BME280;51986;52.788;41.368;2023-02-21T11:43:24;96454.56;;;2.91;46.15
65384;BME280;51986;52.788;41.368;2023-02-21T11:51:40;96475.03;;;3.21;45.19
65384;BME280;51986;52.788;41.368;2023-02-21T11:54:09;96455.97;;;3.53;44.66
65384;BME280;51986;52.788;41.368;2023-02-21T11:56:52;96463.66;;;3.15;45.47
65384;BME280;51986;52.788;41.368;2023-02-21T12:04:50;96458.16;;;2.97;45.57
65384;BME280;51986;52.788;41.368;2023-02-21T12:29:59;96484.22;;;2.28;48.19
65384;BME280;51986;52.788;41.368;2023-02-21T12:37:55;96501.75;;;1.48;49.23
65384;BME280;51986;52.788;41.368;2023-02-21T12:40:33;96487.84;;;1.58;49.34
65384;BME280;51986;52.788;41.368;2023-02-21T12:51:25;96490.66;;;1.47;49.78
65384;BME280;51986;52.788;41.368;2023-02-21T12:54:00;96517.88;;;1.39;50.60
65384;BME280;51986;52.788;41.368;2023-02-21T12:59:42;96527.09;;;1.20;51.23
65384;BME280;51986;52.788;41.368;2023-02-21T13:02:33;96507.91;;;0.91;51.76
65384;BME280;51986;52.788;41.368;2023-02-21T13:05:21;96513.81;;;0.68;52.63
65384;BME280;51986;52.788;41.368;2023-02-21T13:08:00;96527.38;;;0.52;52.76
65384;BME280;51986;52.788;41.368;2023-02-21T13:10:42;96542.28;;;0.71;52.26
65384;BME280;51986;52.788;41.368;2023-02-21T13:13:16;96544.44;;;0.49;52.98
65384;BME280;51986;52.788;41.368;2023-02-21T13:15:46;96523.00;;;0.45;52.81
65384;BME280;51986;52.788;41.368;2023-02-21T13:18:19;96547.50;;;0.41;53.52
65384;BME280;51986;52.788;41.368;2023-02-21T13:21:06;96563.19;;;0.30;53.97
65384;BME280;51986;52.788;41.368;2023-02-21T13:24:00;96531.25;;;0.37;53.68
65384;BME280;51986;52.788;41.368;2023-02-21T13:29:00;96555.50;;;-0.08;54.88
65384;BME280;51986;52.788;41.368;2023-02-21T13:31:32;96547.28;;;-0.03;55.68
65384;BME280;51986;52.788;41.368;2023-02-21T13:34:02;96528.38;;;-0.34;55.18
65384;BME280;51986;52.788;41.368;2023-02-21T13:41:37;96546.38;;;-0.19;55.57
65384;BME280;51986;52.788;41.368;2023-02-21T13:44:09;96553.34;;;-0.16;55.25
65384;BME280;51986;52.788;41.368;2023-02-21T13:52:33;96565.34;;;-0.30;55.63
65384;BME280;51986;52.788;41.368;2023-02-21T13:57:49;96579.06;;;-0.33;55.37
65384;BME280;51986;52.788;41.368;2023-02-21T14:13:32;96612.16;;;-1.03;55.53
65384;BME280;51986;52.788;41.368;2023-02-21T14:21:13;96607.59;;;-1.47;56.23
65384;BME280;51986;52.788;41.368;2023-02-21T14:23:49;96604.69;;;-1.60;56.92
65384;BME280;51986;52.788;41.368;2023-02-21T14:34:26;96623.69;;;-2.06;58.34
65384;BME280;51986;52.788;41.368;2023-02-21T14:37:00;96625.09;;;-1.87;57.95
65384;BME280;51986;52.788;41.368;2023-02-21T14:39:38;96629.91;;;-1.89;58.32
65384;BME280;51986;52.788;41.368;2023-02-21T15:01:42;96663.56;;;-2.50;59.83
65384;BME280;51986;52.788;41.368;2023-02-21T15:04:19;96658.38;;;-2.46;59.64
65384;BME280;51986;52.788;41.368;2023-02-21T15:13:00;96689.72;;;-2.48;59.74
65384;BME280;51986;52.788;41.368;2023-02-21T15:15:34;96676.44;;;-2.57;60.56
65384;BME280;51986;52.788;41.368;2023-02-21T15:18:23;96691.56;;;-2.63;61.09
65384;BME280;51986;52.788;41.368;2023-02-21T15:23:41;96696.66;;;-3.02;62.24
65384;BME280;51986;52.788;41.368;2023-02-21T15:28:44;96705.09;;;-3.12;62.51
65384;BME280;51986;52.788;41.368;2023-02-21T15:31:11;96714.66;;;-3.09;62.55
65384;BME280;51986;52.788;41.368;2023-02-21T15:33:41;96730.47;;;-3.18;62.98
65384;BME280;51986;52.788;41.368;2023-02-21T15:36:19;96729.44;;;-3.06;62.93
65384;BME280;51986;52.788;41.368;2023-02-21T15:39:05;96749.34;;;-3.03;62.88
65384;BME280;51986;52.788;41.368;2023-02-21T15:41:44;96743.06;;;-3.02;62.06
65384;BME280;51986;52.788;41.368;2023-02-21T15:44:23;96755.59;;;-3.04;63.26
65384;BME280;51986;52.788;41.368;2023-02-21T15:46:59;96738.63;;;-3.05;62.11
65384;BME280;51986;52.788;41.368;2023-02-21T15:49:31;96751.34;;;-3.44;64.36
65384;BME280;51986;52.788;41.368;2023-02-21T15:52:03;96770.22;;;-3.29;64.10
65384;BME280;51986;52.788;41.368;2023-02-21T15:54:35;96752.91;;;-3.29;63.01
65384;BME280;51986;52.788;41.368;2023-02-21T15:59:37;96754.22;;;-3.60;63.94
65384;BME280;51986;52.788;41.368;2023-02-21T16:02:21;96742.66;;;-3.84;63.49
65384;BME280;51986;52.788;41.368;2023-02-21T16:04:50;96760.09;;;-3.63;63.15
65384;BME280;51986;52.788;41.368;2023-02-21T16:07:33;96768.19;;;-3.65;62.97